sensor_id;sensor_type;location;lat;lon;timestamp;pressure;altitude;pressure_sealevel;temperature;humidity
49949;BME280;35840;45.982;8.890;2022-08-03T00:00:25;98537.84;;;24.41;56.91
49949;BME280;35840;45.982;8.890;2022-08-03T00:02:52;98542.38;;;24.33;57.23
49949;BME280;35840;45.982;8.890;2022-08-03T00:05:19;98547.69;;;24.24;57.44
49949;BME280;35840;45.982;8.890;2022-08-03T00:07:46;98545.31;;;24.53;56.99
49949;BME280;35840;45.982;8.890;2022-08-03T00:10:15;98546.78;;;24.55;57.02
49949;BME280;35840;45.982;8.890;2022-08-03T00:12:42;98546.78;;;24.32;57.55
49949;BME280;35840;45.982;8.890;2022-08-03T00:15:09;98543.53;;;24.30;57.34
49949;BME280;35840;45.982;8.890;2022-08-03T00:17:42;98551.97;;;23.94;58.89
49949;BME280;35840;45.982;8.890;2022-08-03T00:20:22;98544.19;;;23.46;60.31
49949;BME280;35840;45.982;8.890;2022-08-03T00:22:49;98548.28;;;23.80;58.99
49949;BME280;35840;45.982;8.890;2022-08-03T00:25:17;98549.25;;;24.11;58.19
49949;BME280;35840;45.982;8.890;2022-08-03T00:27:44;98538.13;;;24.47;57.53
49949;BME280;35840;45.982;8.890;2022-08-03T00:30:14;98542.00;;;23.89;58.95
49949;BME280;35840;45.982;8.890;2022-08-03T00:32:42;98541.69;;;23.53;59.52
49949;BME280;35840;45.982;8.890;2022-08-03T00:35:11;98543.28;;;23.94;58.29
49949;BME280;35840;45.982;8.890;2022-08-03T00:37:58;98536.59;;;24.52;57.11
49949;BME280;35840;45.982;8.890;2022-08-03T00:40:25;98544.13;;;24.17;57.97
49949;BME280;35840;45.982;8.890;2022-08-03T00:45:24;98539.59;;;23.71;58.84
49949;BME280;35840;45.982;8.890;2022-08-03T00:47:52;98538.97;;;24.01;58.17
49949;BME280;35840;45.982;8.890;2022-08-03T00:50:19;98536.75;;;24.36;57.16
49949;BME280;35840;45.982;8.890;2022-08-03T00:52:49;98543.28;;;24.40;56.48
49949;BME280;35840;45.982;8.890;2022-08-03T00:55:17;98554.69;;;24.09;56.63
49949;BME280;35840;45.982;8.890;2022-08-03T00:57:44;98543.38;;;24.09;56.74
49949;BME280;35840;45.982;8.890;2022-08-03T01:00:15;98543.53;;;23.76;57.58
49949;BME280;35840;45.982;8.890;2022-08-03T01:02:42;98530.63;;;23.66;58.47
49949;BME280;35840;45.982;8.890;2022-08-03T01:05:09;98531.09;;;24.01;57.58
49949;BME280;35840;45.982;8.890;2022-08-03T01:11:31;98538.09;;;23.77;57.40
49949;BME280;35840;45.982;8.890;2022-08-03T01:13:47;98531.47;;;23.27;59.24
49949;BME280;35840;45.982;8.890;2022-08-03T01:19:35;98528.63;;;23.45;59.00
49949;BME280;35840;45.982;8.890;2022-08-03T01:25:08;98524.16;;;24.08;57.52
49949;BME280;35840;45.982;8.890;2022-08-03T01:27:43;98524.72;;;24.18;57.63
49949;BME280;35840;45.982;8.890;2022-08-03T01:30:17;98520.84;;;23.51;58.62
49949;BME280;35840;45.982;8.890;2022-08-03T01:35:49;98521.31;;;23.24;59.99
49949;BME280;35840;45.982;8.890;2022-08-03T01:38:23;98512.63;;;23.54;59.15
49949;BME280;35840;45.982;8.890;2022-08-03T01:40:52;98518.50;;;23.65;58.20
49949;BME280;35840;45.982;8.890;2022-08-03T01:43:24;98520.78;;;23.68;58.51
49949;BME280;35840;45.982;8.890;2022-08-03T01:46:14;98508.22;;;23.24;59.65
49949;BME280;35840;45.982;8.890;2022-08-03T01:48:42;98513.84;;;23.12;60.16
49949;BME280;35840;45.982;8.890;2022-08-03T01:51:11;98515.84;;;22.77;60.71
49949;BME280;35840;45.982;8.890;2022-08-03T01:53:39;98513.75;;;22.73;61.00
49949;BME280;35840;45.982;8.890;2022-08-03T01:56:11;98516.31;;;22.89;60.44
49949;BME280;35840;45.982;8.890;2022-08-03T01:58:39;98518.41;;;23.02;60.05
49949;BME280;35840;45.982;8.890;2022-08-03T02:01:08;98503.88;;;22.83;60.91
49949;BME280;35840;45.982;8.890;2022-08-03T02:03:37;98511.47;;;22.61;61.96
49949;BME280;35840;45.982;8.890;2022-08-03T02:06:28;98507.84;;;22.29;62.61
49949;BME280;35840;45.982;8.890;2022-08-03T02:09:17;98498.22;;;22.55;61.31
49949;BME280;35840;45.982;8.890;2022-08-03T02:11:46;98510.97;;;22.66;61.04
49949;BME280;35840;45.982;8.890;2022-08-03T02:14:13;98512.09;;;22.72;61.38
49949;BME280;35840;45.982;8.890;2022-08-03T02:16:42;98509.31;;;22.73;60.99
49949;BME280;35840;45.982;8.890;2022-08-03T02:19:11;98509.53;;;22.39;62.14
49949;BME280;35840;45.982;8.890;2022-08-03T02:21:40;98506.34;;;22.68;61.04
49949;BME280;35840;45.982;8.890;2022-08-03T02:24:26;98497.75;;;22.99;59.94
49949;BME280;35840;45.982;8.890;2022-08-03T02:26:54;98502.34;;;23.05;60.33
49949;BME280;35840;45.982;8.890;2022-08-03T02:29:24;98508.44;;;22.89;60.99
49949;BME280;35840;45.982;8.890;2022-08-03T02:32:10;98506.66;;;22.90;60.81
49949;BME280;35840;45.982;8.890;2022-08-03T02:34:39;98505.84;;;22.81;60.17
49949;BME280;35840;45.982;8.890;2022-08-03T02:37:09;98510.41;;;22.95;59.96
49949;BME280;35840;45.982;8.890;2022-08-03T02:39:38;98512.63;;;22.50;61.48
49949;BME280;35840;45.982;8.890;2022-08-03T02:42:10;98513.91;;;22.05;62.85
49949;BME280;35840;45.982;8.890;2022-08-03T02:44:39;98499.81;;;22.64;60.96
49949;BME280;35840;45.982;8.890;2022-08-03T02:47:10;98504.69;;;22.83;60.03
49949;BME280;35840;45.982;8.890;2022-08-03T02:49:37;98510.09;;;22.90;60.12
49949;BME280;35840;45.982;8.890;2022-08-03T02:52:19;98518.03;;;22.65;60.65
49949;BME280;35840;45.982;8.890;2022-08-03T02:54:49;98513.13;;;23.10;59.01
49949;BME280;35840;45.982;8.890;2022-08-03T02:57:17;98509.03;;;23.16;58.76
49949;BME280;35840;45.982;8.890;2022-08-03T02:59:46;98523.03;;;22.92;59.39
49949;BME280;35840;45.982;8.890;2022-08-03T03:02:14;98514.56;;;22.65;60.58
49949;BME280;35840;45.982;8.890;2022-08-03T03:04:43;98514.09;;;22.53;61.21
49949;BME280;35840;45.982;8.890;2022-08-03T03:07:31;98517.31;;;22.88;60.11
49949;BME280;35840;45.982;8.890;2022-08-03T03:10:16;98513.47;;;23.24;58.86
49949;BME280;35840;45.982;8.890;2022-08-03T03:12:44;98511.91;;;22.90;59.79
49949;BME280;35840;45.982;8.890;2022-08-03T03:15:12;98515.13;;;23.00;59.67
49949;BME280;35840;45.982;8.890;2022-08-03T03:17:39;98517.25;;;23.13;59.35
49949;BME280;35840;45.982;8.890;2022-08-03T03:20:08;98515.72;;;23.35;58.74
49949;BME280;35840;45.982;8.890;2022-08-03T03:22:35;98510.47;;;22.70;60.51
49949;BME280;35840;45.982;8.890;2022-08-03T03:25:02;98510.63;;;22.61;60.81
49949;BME280;35840;45.982;8.890;2022-08-03T03:27:29;98518.16;;;21.98;62.54
49949;BME280;35840;45.982;8.890;2022-08-03T03:29:57;98517.84;;;22.17;62.21
49949;BME280;35840;45.982;8.890;2022-08-03T03:32:28;98516.88;;;22.18;62.26
49949;BME280;35840;45.982;8.890;2022-08-03T03:34:55;98512.63;;;22.26;61.69
49949;BME280;35840;45.982;8.890;2022-08-03T03:37:22;98517.72;;;22.35;61.27
49949;BME280;35840;45.982;8.890;2022-08-03T03:39:49;98514.25;;;22.10;61.85
49949;BME280;35840;45.982;8.890;2022-08-03T03:42:15;98513.91;;;22.13;61.82
49949;BME280;35840;45.982;8.890;2022-08-03T03:44:42;98521.78;;;22.13;61.75
49949;BME280;35840;45.982;8.890;2022-08-03T03:47:09;98518.66;;;21.93;62.38
49949;BME280;35840;45.982;8.890;2022-08-03T03:49:39;98524.56;;;22.20;61.92
49949;BME280;35840;45.982;8.890;2022-08-03T03:52:06;98519.72;;;21.58;62.70
49949;BME280;35840;45.982;8.890;2022-08-03T03:54:43;98513.56;;;21.83;62.15
49949;BME280;35840;45.982;8.890;2022-08-03T03:57:11;98526.13;;;21.72;62.73
49949;BME280;35840;45.982;8.890;2022-08-03T03:59:42;98524.22;;;21.47;63.62
49949;BME280;35840;45.982;8.890;2022-08-03T04:02:10;98519.38;;;21.53;63.53
49949;BME280;35840;45.982;8.890;2022-08-03T04:04:37;98523.16;;;21.58;63.27
49949;BME280;35840;45.982;8.890;2022-08-03T04:07:24;98522.72;;;21.88;62.28
49949;BME280;35840;45.982;8.890;2022-08-03T04:10:16;98532.25;;;22.22;60.92
49949;BME280;35840;45.982;8.890;2022-08-03T04:13:08;98517.34;;;21.97;61.96
49949;BME280;35840;45.982;8.890;2022-08-03T04:15:37;98519.31;;;21.44;63.75
49949;BME280;35840;45.982;8.890;2022-08-03T04:18:07;98520.28;;;21.43;63.77
49949;BME280;35840;45.982;8.890;2022-08-03T04:20:36;98523.63;;;21.54;63.22
49949;BME280;35840;45.982;8.890;2022-08-03T04:23:05;98522.84;;;21.70;62.80
49949;BME280;35840;45.982;8.890;2022-08-03T04:25:41;98529.44;;;21.47;63.79
49949;BME280;35840;45.982;8.890;2022-08-03T04:28:09;98518.75;;;21.67;63.50
49949;BME280;35840;45.982;8.890;2022-08-03T04:30:58;98521.59;;;21.39;64.17
49949;BME280;35840;45.982;8.890;2022-08-03T04:33:28;98524.13;;;21.23;64.28
49949;BME280;35840;45.982;8.890;2022-08-03T04:35:59;98533.13;;;21.20;64.88
49949;BME280;35840;45.982;8.890;2022-08-03T04:38:36;98538.09;;;21.40;64.70
49949;BME280;35840;45.982;8.890;2022-08-03T04:41:04;98537.59;;;21.79;63.88
49949;BME280;35840;45.982;8.890;2022-08-03T04:43:32;98532.47;;;21.61;63.46
49949;BME280;35840;45.982;8.890;2022-08-03T04:46:00;98539.38;;;21.62;63.33
49949;BME280;35840;45.982;8.890;2022-08-03T04:48:28;98538.31;;;21.46;64.47
49949;BME280;35840;45.982;8.890;2022-08-03T04:50:54;98538.19;;;21.64;63.89
49949;BME280;35840;45.982;8.890;2022-08-03T04:53:21;98541.41;;;22.17;62.19
49949;BME280;35840;45.982;8.890;2022-08-03T04:55:48;98548.41;;;21.92;62.15
49949;BME280;35840;45.982;8.890;2022-08-03T04:58:15;98547.81;;;21.56;63.55
49949;BME280;35840;45.982;8.890;2022-08-03T05:00:41;98547.72;;;21.31;64.75
49949;BME280;35840;45.982;8.890;2022-08-03T05:03:08;98549.19;;;21.33;64.81
49949;BME280;35840;45.982;8.890;2022-08-03T05:05:54;98552.69;;;21.93;63.02
49949;BME280;35840;45.982;8.890;2022-08-03T05:08:27;98552.81;;;21.83;63.19
49949;BME280;35840;45.982;8.890;2022-08-03T05:10:55;98555.78;;;21.80;68.38
49949;BME280;35840;45.982;8.890;2022-08-03T05:13:24;98556.69;;;21.63;66.88
49949;BME280;35840;45.982;8.890;2022-08-03T05:15:51;98553.75;;;21.58;67.54
49949;BME280;35840;45.982;8.890;2022-08-03T05:18:18;98554.47;;;21.84;66.88
49949;BME280;35840;45.982;8.890;2022-08-03T05:20:44;98551.28;;;22.40;64.88
49949;BME280;35840;45.982;8.890;2022-08-03T05:23:11;98560.88;;;22.15;63.81
49949;BME280;35840;45.982;8.890;2022-08-03T05:25:37;98555.19;;;22.52;65.73
49949;BME280;35840;45.982;8.890;2022-08-03T05:28:04;98559.78;;;22.59;65.72
49949;BME280;35840;45.982;8.890;2022-08-03T05:30:31;98551.03;;;22.99;64.47
49949;BME280;35840;45.982;8.890;2022-08-03T05:33:01;98554.94;;;23.12;64.93
49949;BME280;35840;45.982;8.890;2022-08-03T05:35:28;98561.06;;;22.87;65.37
49949;BME280;35840;45.982;8.890;2022-08-03T05:38:15;98550.13;;;22.59;65.48
49949;BME280;35840;45.982;8.890;2022-08-03T05:40:54;98559.88;;;23.07;63.40
49949;BME280;35840;45.982;8.890;2022-08-03T05:43:23;98555.44;;;23.24;61.62
49949;BME280;35840;45.982;8.890;2022-08-03T05:45:50;98539.19;;;23.28;62.66
49949;BME280;35840;45.982;8.890;2022-08-03T05:48:37;98551.06;;;23.47;64.38
49949;BME280;35840;45.982;8.890;2022-08-03T05:51:03;98555.59;;;23.22;63.12
49949;BME280;35840;45.982;8.890;2022-08-03T05:53:37;98557.91;;;23.17;65.48
49949;BME280;35840;45.982;8.890;2022-08-03T05:56:04;98552.47;;;23.18;64.77
49949;BME280;35840;45.982;8.890;2022-08-03T05:58:42;98562.28;;;23.25;66.10
49949;BME280;35840;45.982;8.890;2022-08-03T06:01:09;98553.81;;;23.54;65.45
49949;BME280;35840;45.982;8.890;2022-08-03T06:03:36;98557.38;;;23.61;64.96
49949;BME280;35840;45.982;8.890;2022-08-03T06:06:03;98556.59;;;23.92;63.18
49949;BME280;35840;45.982;8.890;2022-08-03T06:08:29;98553.69;;;24.10;63.70
49949;BME280;35840;45.982;8.890;2022-08-03T06:10:56;98548.47;;;24.25;63.61
49949;BME280;35840;45.982;8.890;2022-08-03T06:13:23;98556.94;;;24.35;63.05
49949;BME280;35840;45.982;8.890;2022-08-03T06:15:49;98551.78;;;24.42;63.22
49949;BME280;35840;45.982;8.890;2022-08-03T06:18:16;98558.03;;;24.41;61.93
49949;BME280;35840;45.982;8.890;2022-08-03T06:20:43;98564.88;;;24.50;61.36
49949;BME280;35840;45.982;8.890;2022-08-03T06:23:12;98563.97;;;24.58;61.26
49949;BME280;35840;45.982;8.890;2022-08-03T06:25:43;98565.84;;;24.49;61.85
49949;BME280;35840;45.982;8.890;2022-08-03T06:28:11;98564.19;;;24.33;60.30
49949;BME280;35840;45.982;8.890;2022-08-03T06:30:59;98561.94;;;24.45;60.44
49949;BME280;35840;45.982;8.890;2022-08-03T06:33:27;98565.63;;;24.59;61.16
49949;BME280;35840;45.982;8.890;2022-08-03T06:36:13;98569.13;;;24.74;60.55
49949;BME280;35840;45.982;8.890;2022-08-03T06:38:40;98567.16;;;24.77;60.26
49949;BME280;35840;45.982;8.890;2022-08-03T06:41:07;98562.41;;;24.72;59.97
49949;BME280;35840;45.982;8.890;2022-08-03T06:43:34;98568.69;;;24.71;60.96
49949;BME280;35840;45.982;8.890;2022-08-03T06:46:04;98568.13;;;24.75;60.66
49949;BME280;35840;45.982;8.890;2022-08-03T06:48:31;98559.81;;;24.87;59.92
49949;BME280;35840;45.982;8.890;2022-08-03T06:50:58;98570.75;;;24.90;59.42
49949;BME280;35840;45.982;8.890;2022-08-03T06:53:25;98569.34;;;24.88;59.20
49949;BME280;35840;45.982;8.890;2022-08-03T06:55:51;98569.97;;;24.90;58.13
49949;BME280;35840;45.982;8.890;2022-08-03T06:58:20;98566.72;;;24.88;58.03
49949;BME280;35840;45.982;8.890;2022-08-03T07:00:47;98571.41;;;24.92;57.85
49949;BME280;35840;45.982;8.890;2022-08-03T07:03:14;98572.63;;;25.05;57.52
49949;BME280;35840;45.982;8.890;2022-08-03T07:05:41;98568.25;;;25.12;57.41
49949;BME280;35840;45.982;8.890;2022-08-03T07:08:09;98575.06;;;25.21;56.07
49949;BME280;35840;45.982;8.890;2022-08-03T07:10:35;98573.69;;;25.25;55.96
49949;BME280;35840;45.982;8.890;2022-08-03T07:13:03;98577.59;;;25.30;55.04
49949;BME280;35840;45.982;8.890;2022-08-03T07:15:30;98577.06;;;25.34;55.86
49949;BME280;35840;45.982;8.890;2022-08-03T07:18:17;98580.78;;;25.40;54.94
49949;BME280;35840;45.982;8.890;2022-08-03T07:20:56;98581.78;;;25.39;54.93
49949;BME280;35840;45.982;8.890;2022-08-03T07:23:23;98590.50;;;25.39;55.27
49949;BME280;35840;45.982;8.890;2022-08-03T07:25:51;98588.41;;;25.50;55.33
49949;BME280;35840;45.982;8.890;2022-08-03T07:28:18;98585.59;;;25.51;55.71
49949;BME280;35840;45.982;8.890;2022-08-03T07:30:45;98593.94;;;25.55;55.26
49949;BME280;35840;45.982;8.890;2022-08-03T07:33:12;98587.50;;;25.57;55.80
49949;BME280;35840;45.982;8.890;2022-08-03T07:35:38;98591.13;;;25.56;55.71
49949;BME280;35840;45.982;8.890;2022-08-03T07:38:05;98597.66;;;25.60;55.59
49949;BME280;35840;45.982;8.890;2022-08-03T07:40:32;98591.94;;;25.57;54.31
49949;BME280;35840;45.982;8.890;2022-08-03T07:42:58;98590.19;;;25.64;54.19
49949;BME280;35840;45.982;8.890;2022-08-03T07:45:25;98587.91;;;25.76;54.70
49949;BME280;35840;45.982;8.890;2022-08-03T07:47:52;98587.88;;;25.91;55.14
49949;BME280;35840;45.982;8.890;2022-08-03T07:50:20;98583.34;;;25.85;54.19
49949;BME280;35840;45.982;8.890;2022-08-03T07:52:47;98588.69;;;25.91;54.34
49949;BME280;35840;45.982;8.890;2022-08-03T07:55:16;98585.69;;;25.94;54.14
49949;BME280;35840;45.982;8.890;2022-08-03T07:57:43;98582.78;;;26.04;53.85
49949;BME280;35840;45.982;8.890;2022-08-03T08:00:17;98582.03;;;26.10;53.64
49949;BME280;35840;45.982;8.890;2022-08-03T08:02:44;98583.72;;;26.18;53.63
49949;BME280;35840;45.982;8.890;2022-08-03T08:05:11;98582.09;;;26.17;53.57
49949;BME280;35840;45.982;8.890;2022-08-03T08:07:38;98574.81;;;26.19;53.18
49949;BME280;35840;45.982;8.890;2022-08-03T08:10:07;98579.66;;;26.16;52.98
49949;BME280;35840;45.982;8.890;2022-08-03T08:12:36;98580.72;;;26.21;53.01
49949;BME280;35840;45.982;8.890;2022-08-03T08:15:04;98575.44;;;26.21;52.50
49949;BME280;35840;45.982;8.890;2022-08-03T08:17:40;98567.91;;;26.18;52.02
49949;BME280;35840;45.982;8.890;2022-08-03T08:20:08;98570.78;;;26.23;51.87
49949;BME280;35840;45.982;8.890;2022-08-03T08:22:35;98575.94;;;26.32;53.33
49949;BME280;35840;45.982;8.890;2022-08-03T08:25:03;98575.94;;;26.32;52.42
49949;BME280;35840;45.982;8.890;2022-08-03T08:27:29;98575.38;;;26.36;51.56
49949;BME280;35840;45.982;8.890;2022-08-03T08:30:18;98574.13;;;26.32;50.37
49949;BME280;35840;45.982;8.890;2022-08-03T08:32:46;98572.16;;;26.41;51.06
49949;BME280;35840;45.982;8.890;2022-08-03T08:35:12;98567.53;;;26.43;49.68
49949;BME280;35840;45.982;8.890;2022-08-03T08:37:39;98573.59;;;26.43;50.14
49949;BME280;35840;45.982;8.890;2022-08-03T08:40:07;98566.38;;;26.52;50.70
49949;BME280;35840;45.982;8.890;2022-08-03T08:42:38;98560.38;;;26.65;50.40
49949;BME280;35840;45.982;8.890;2022-08-03T08:45:10;98566.19;;;26.75;51.91
49949;BME280;35840;45.982;8.890;2022-08-03T08:47:39;98556.91;;;26.86;50.99
49949;BME280;35840;45.982;8.890;2022-08-03T08:50:21;98563.00;;;26.87;51.05
49949;BME280;35840;45.982;8.890;2022-08-03T08:52:53;98560.78;;;26.90;50.99
49949;BME280;35840;45.982;8.890;2022-08-03T08:55:22;98558.38;;;26.95;51.11
49949;BME280;35840;45.982;8.890;2022-08-03T08:57:58;98555.41;;;27.05;50.67
49949;BME280;35840;45.982;8.890;2022-08-03T09:00:27;98560.03;;;27.03;50.08
49949;BME280;35840;45.982;8.890;2022-08-03T09:02:56;98562.63;;;27.25;50.76
49949;BME280;35840;45.982;8.890;2022-08-03T09:05:23;98563.38;;;27.12;49.41
49949;BME280;35840;45.982;8.890;2022-08-03T09:08:09;98565.63;;;27.15;46.59
49949;BME280;35840;45.982;8.890;2022-08-03T09:10:36;98568.09;;;27.23;46.56
49949;BME280;35840;45.982;8.890;2022-08-03T09:13:02;98568.94;;;27.30;46.52
49949;BME280;35840;45.982;8.890;2022-08-03T09:15:31;98570.22;;;27.35;46.04
49949;BME280;35840;45.982;8.890;2022-08-03T09:18:00;98570.41;;;27.40;46.44
49949;BME280;35840;45.982;8.890;2022-08-03T09:20:29;98557.66;;;27.43;44.01
49949;BME280;35840;45.982;8.890;2022-08-03T09:22:59;98557.84;;;27.42;44.90
49949;BME280;35840;45.982;8.890;2022-08-03T09:28:13;98550.19;;;27.60;45.15
49949;BME280;35840;45.982;8.890;2022-08-03T09:31:00;98555.69;;;27.65;46.12
49949;BME280;35840;45.982;8.890;2022-08-03T09:33:27;98551.69;;;27.83;45.48
49949;BME280;35840;45.982;8.890;2022-08-03T09:36:01;98553.13;;;27.92;45.63
49949;BME280;35840;45.982;8.890;2022-08-03T09:38:28;98548.84;;;27.98;45.48
49949;BME280;35840;45.982;8.890;2022-08-03T09:40:56;98547.41;;;27.82;43.11
49949;BME280;35840;45.982;8.890;2022-08-03T09:43:26;98549.66;;;27.85;43.56
49949;BME280;35840;45.982;8.890;2022-08-03T09:46:02;98548.06;;;27.97;45.03
49949;BME280;35840;45.982;8.890;2022-08-03T09:48:30;98545.84;;;28.08;45.01
49949;BME280;35840;45.982;8.890;2022-08-03T09:50:59;98549.31;;;28.15;44.20
49949;BME280;35840;45.982;8.890;2022-08-03T09:53:46;98545.88;;;28.14;44.75
49949;BME280;35840;45.982;8.890;2022-08-03T09:56:40;98540.59;;;28.34;44.03
49949;BME280;35840;45.982;8.890;2022-08-03T09:59:07;98544.66;;;28.37;43.81
49949;BME280;35840;45.982;8.890;2022-08-03T10:01:34;98521.25;;;28.47;43.41
49949;BME280;35840;45.982;8.890;2022-08-03T10:04:02;98536.72;;;28.57;42.40
49949;BME280;35840;45.982;8.890;2022-08-03T10:06:31;98540.56;;;28.61;43.11
49949;BME280;35840;45.982;8.890;2022-08-03T10:09:07;98536.94;;;28.62;42.38
49949;BME280;35840;45.982;8.890;2022-08-03T10:11:35;98529.41;;;28.66;43.53
49949;BME280;35840;45.982;8.890;2022-08-03T10:14:09;98531.41;;;28.77;43.32
49949;BME280;35840;45.982;8.890;2022-08-03T10:16:38;98535.91;;;28.70;42.46
49949;BME280;35840;45.982;8.890;2022-08-03T10:19:06;98527.53;;;28.87;43.10
49949;BME280;35840;45.982;8.890;2022-08-03T10:21:37;98521.66;;;28.64;40.55
49949;BME280;35840;45.982;8.890;2022-08-03T10:24:07;98523.91;;;28.74;42.44
49949;BME280;35840;45.982;8.890;2022-08-03T10:26:36;98514.31;;;28.60;40.12
49949;BME280;35840;45.982;8.890;2022-08-03T10:29:09;98520.25;;;28.68;42.38
49949;BME280;35840;45.982;8.890;2022-08-03T10:31:39;98505.78;;;28.78;42.04
49949;BME280;35840;45.982;8.890;2022-08-03T10:34:26;98502.91;;;28.86;41.71
49949;BME280;35840;45.982;8.890;2022-08-03T10:36:56;98492.72;;;28.90;43.10
49949;BME280;35840;45.982;8.890;2022-08-03T10:39:28;98498.59;;;28.98;43.14
49949;BME280;35840;45.982;8.890;2022-08-03T10:41:56;98495.94;;;29.05;41.98
49949;BME280;35840;45.982;8.890;2022-08-03T10:44:31;98495.06;;;29.11;42.20
49949;BME280;35840;45.982;8.890;2022-08-03T10:46:59;98488.31;;;29.22;42.24
49949;BME280;35840;45.982;8.890;2022-08-03T10:49:26;98487.72;;;29.20;41.24
49949;BME280;35840;45.982;8.890;2022-08-03T10:52:02;98484.66;;;29.23;41.17
49949;BME280;35840;45.982;8.890;2022-08-03T10:54:44;98482.63;;;29.25;42.74
49949;BME280;35840;45.982;8.890;2022-08-03T11:00:13;98481.78;;;29.31;42.04
49949;BME280;35840;45.982;8.890;2022-08-03T11:05:43;98478.03;;;29.46;42.42
49949;BME280;35840;45.982;8.890;2022-08-03T11:10:56;98474.03;;;29.68;40.60
49949;BME280;35840;45.982;8.890;2022-08-03T11:13:24;98472.19;;;29.69;41.65
49949;BME280;35840;45.982;8.890;2022-08-03T11:15:55;98466.91;;;29.69;41.26
49949;BME280;35840;45.982;8.890;2022-08-03T11:18:29;98466.06;;;29.68;40.77
49949;BME280;35840;45.982;8.890;2022-08-03T11:20:58;98464.69;;;29.66;42.42
49949;BME280;35840;45.982;8.890;2022-08-03T11:23:46;98453.50;;;29.57;41.47
49949;BME280;35840;45.982;8.890;2022-08-03T11:26:32;98460.53;;;29.45;41.04
49949;BME280;35840;45.982;8.890;2022-08-03T11:29:27;98459.41;;;29.59;41.69
49949;BME280;35840;45.982;8.890;2022-08-03T11:31:54;98453.88;;;29.67;41.71
49949;BME280;35840;45.982;8.890;2022-08-03T11:34:21;98457.53;;;29.66;41.81
49949;BME280;35840;45.982;8.890;2022-08-03T11:37:18;98456.41;;;29.81;42.94
49949;BME280;35840;45.982;8.890;2022-08-03T11:39:49;98454.50;;;29.95;40.23
49949;BME280;35840;45.982;8.890;2022-08-03T11:44:50;98448.41;;;29.94;39.82
49949;BME280;35840;45.982;8.890;2022-08-03T11:47:19;98447.66;;;29.87;39.27
49949;BME280;35840;45.982;8.890;2022-08-03T11:49:47;98444.72;;;29.95;39.69
49949;BME280;35840;45.982;8.890;2022-08-03T11:52:16;98442.00;;;30.02;40.67
49949;BME280;35840;45.982;8.890;2022-08-03T11:54:43;98437.72;;;30.01;39.84
49949;BME280;35840;45.982;8.890;2022-08-03T11:57:09;98433.63;;;30.05;39.27
49949;BME280;35840;45.982;8.890;2022-08-03T11:59:36;98431.63;;;30.00;38.05
49949;BME280;35840;45.982;8.890;2022-08-03T12:02:12;98431.09;;;30.17;38.98
49949;BME280;35840;45.982;8.890;2022-08-03T12:04:54;98431.50;;;30.14;39.24
49949;BME280;35840;45.982;8.890;2022-08-03T12:07:24;98436.06;;;30.25;38.47
49949;BME280;35840;45.982;8.890;2022-08-03T12:10:13;98430.78;;;30.25;38.42
49949;BME280;35840;45.982;8.890;2022-08-03T12:12:40;98426.13;;;30.20;38.27
49949;BME280;35840;45.982;8.890;2022-08-03T12:15:12;98428.56;;;30.22;38.96
49949;BME280;35840;45.982;8.890;2022-08-03T12:17:39;98425.63;;;30.30;38.56
49949;BME280;35840;45.982;8.890;2022-08-03T12:20:08;98427.63;;;30.35;38.96
49949;BME280;35840;45.982;8.890;2022-08-03T12:22:39;98413.78;;;30.33;38.88
49949;BME280;35840;45.982;8.890;2022-08-03T12:25:07;98410.47;;;30.37;39.32
49949;BME280;35840;45.982;8.890;2022-08-03T12:27:34;98408.34;;;30.46;40.13
49949;BME280;35840;45.982;8.890;2022-08-03T12:30:02;98409.53;;;30.50;39.31
49949;BME280;35840;45.982;8.890;2022-08-03T12:32:29;98411.22;;;30.45;38.98
49949;BME280;35840;45.982;8.890;2022-08-03T12:34:57;98406.34;;;30.42;37.90
49949;BME280;35840;45.982;8.890;2022-08-03T12:37:30;98404.28;;;30.44;38.21
49949;BME280;35840;45.982;8.890;2022-08-03T12:39:59;98401.97;;;30.54;37.29
49949;BME280;35840;45.982;8.890;2022-08-03T12:42:37;98407.56;;;30.64;36.17
49949;BME280;35840;45.982;8.890;2022-08-03T12:45:24;98402.69;;;30.61;36.45
49949;BME280;35840;45.982;8.890;2022-08-03T12:47:56;98397.16;;;30.63;37.96
49949;BME280;35840;45.982;8.890;2022-08-03T12:50:32;98399.88;;;30.74;38.05
49949;BME280;35840;45.982;8.890;2022-08-03T12:53:00;98392.06;;;30.80;37.98
49949;BME280;35840;45.982;8.890;2022-08-03T12:55:27;98394.25;;;30.83;36.55
49949;BME280;35840;45.982;8.890;2022-08-03T12:58:30;98401.31;;;30.89;35.84
49949;BME280;35840;45.982;8.890;2022-08-03T13:01:00;98399.94;;;30.86;36.36
49949;BME280;35840;45.982;8.890;2022-08-03T13:03:38;98380.25;;;30.76;36.70
49949;BME280;35840;45.982;8.890;2022-08-03T13:06:16;98395.06;;;30.83;36.73
49949;BME280;35840;45.982;8.890;2022-08-03T13:08:43;98381.78;;;30.83;35.56
49949;BME280;35840;45.982;8.890;2022-08-03T13:11:22;98372.06;;;30.77;36.14
49949;BME280;35840;45.982;8.890;2022-08-03T13:14:09;98385.88;;;30.67;35.22
49949;BME280;35840;45.982;8.890;2022-08-03T13:16:46;98377.03;;;30.73;35.83
49949;BME280;35840;45.982;8.890;2022-08-03T13:19:12;98376.13;;;30.80;35.90
49949;BME280;35840;45.982;8.890;2022-08-03T13:21:41;98378.69;;;30.86;35.88
49949;BME280;35840;45.982;8.890;2022-08-03T13:24:29;98378.59;;;30.93;36.84
49949;BME280;35840;45.982;8.890;2022-08-03T13:26:57;98374.88;;;31.01;36.78
49949;BME280;35840;45.982;8.890;2022-08-03T13:29:23;98365.91;;;31.14;36.06
49949;BME280;35840;45.982;8.890;2022-08-03T13:31:50;98363.16;;;31.20;35.52
49949;BME280;35840;45.982;8.890;2022-08-03T13:34:17;98365.38;;;31.35;37.26
49949;BME280;35840;45.982;8.890;2022-08-03T13:36:49;98365.75;;;31.39;36.02
49949;BME280;35840;45.982;8.890;2022-08-03T13:39:39;98361.34;;;31.45;34.86
49949;BME280;35840;45.982;8.890;2022-08-03T13:42:29;98362.97;;;31.46;33.81
49949;BME280;35840;45.982;8.890;2022-08-03T13:44:56;98354.06;;;31.40;34.38
49949;BME280;35840;45.982;8.890;2022-08-03T13:47:22;98357.84;;;31.32;34.92
49949;BME280;35840;45.982;8.890;2022-08-03T13:49:49;98347.47;;;31.31;36.75